createdAt,value
2019-06-20T00:00:51.962Z,17.50
2019-06-20T00:03:20.996Z,17.40
2019-06-20T00:05:49.978Z,17.40
2019-06-20T00:08:18.793Z,17.40
2019-06-20T00:10:47.700Z,17.20
2019-06-20T00:13:16.508Z,17.20
2019-06-20T00:15:45.440Z,17.20
2019-06-20T00:18:14.263Z,17.20
2019-06-20T00:20:43.180Z,17.10
2019-06-20T00:23:12.079Z,17.00
2019-06-20T00:25:41.044Z,17.00
2019-06-20T00:28:09.857Z,17.00
2019-06-20T00:30:38.775Z,16.90
2019-06-20T00:33:07.586Z,16.80
2019-06-20T00:35:36.507Z,16.70
2019-06-20T00:38:05.451Z,16.60
2019-06-20T00:40:34.320Z,16.50
2019-06-20T00:43:16.236Z,16.50
2019-06-20T00:45:33.693Z,16.50
2019-06-20T00:48:02.512Z,16.50
2019-06-20T00:50:31.347Z,16.60
2019-06-20T00:53:00.428Z,16.60
2019-06-20T00:55:29.548Z,16.60
2019-06-20T00:57:58.435Z,16.60
2019-06-20T01:00:28.049Z,16.60
2019-06-20T01:02:56.865Z,16.50
2019-06-20T01:05:25.946Z,16.50
2019-06-20T01:07:54.929Z,16.50
2019-06-20T01:10:23.998Z,16.50
2019-06-20T01:12:52.967Z,16.50
2019-06-20T01:15:22.243Z,16.50
2019-06-20T01:17:51.209Z,16.50
2019-06-20T01:20:20.316Z,16.50
2019-06-20T01:22:49.295Z,16.40
2019-06-20T01:25:30.979Z,16.30
2019-06-20T01:27:59.791Z,16.10
2019-06-20T01:30:28.671Z,16.00
2019-06-20T01:32:57.527Z,16.00
2019-06-20T01:35:26.392Z,16.00
2019-06-20T01:37:55.278Z,16.10
2019-06-20T01:40:24.230Z,16.10
2019-06-20T01:42:53.059Z,16.00
2019-06-20T01:45:22.095Z,16.00
2019-06-20T01:47:50.996Z,16.10
2019-06-20T01:50:20.148Z,16.10
2019-06-20T01:52:49.052Z,16.10
2019-06-20T01:55:23.791Z,16.10
2019-06-20T01:57:52.733Z,16.10
2019-06-20T02:00:34.206Z,16.10
2019-06-20T02:03:03.237Z,16.10
2019-06-20T02:05:32.276Z,16.10
2019-06-20T02:08:01.292Z,16.10
2019-06-20T02:10:30.241Z,16.10
2019-06-20T02:12:59.252Z,16.00
2019-06-20T02:15:28.232Z,15.90
2019-06-20T02:17:57.259Z,15.80
2019-06-20T02:20:38.247Z,15.80
2019-06-20T02:23:07.435Z,15.80
2019-06-20T02:25:36.410Z,15.80
2019-06-20T02:28:05.496Z,15.80
2019-06-20T02:30:34.396Z,15.80
2019-06-20T02:33:03.316Z,15.70
2019-06-20T02:35:32.343Z,15.70
2019-06-20T02:38:01.239Z,15.80
2019-06-20T02:40:30.163Z,15.80
2019-06-20T02:42:59.132Z,15.80
2019-06-20T02:45:28.114Z,15.80
2019-06-20T02:47:57.016Z,15.80
2019-06-20T02:50:26.094Z,15.80
2019-06-20T02:52:55.069Z,15.80
2019-06-20T02:55:23.956Z,15.80
2019-06-20T02:57:52.935Z,15.80
2019-06-20T03:00:33.227Z,15.80
2019-06-20T03:03:02.190Z,15.80
2019-06-20T03:05:31.078Z,15.80
2019-06-20T03:08:00.010Z,15.90
2019-06-20T03:10:28.975Z,15.90
2019-06-20T03:12:57.823Z,16.00
2019-06-20T03:15:26.731Z,16.00
2019-06-20T03:17:55.563Z,16.10
2019-06-20T03:20:24.531Z,16.10
2019-06-20T03:22:53.511Z,16.10
2019-06-20T03:25:22.476Z,16.20
2019-06-20T03:27:51.394Z,16.10
2019-06-20T03:30:20.355Z,16.10
2019-06-20T03:32:49.260Z,16.10
2019-06-20T03:35:18.238Z,16.10
2019-06-20T03:37:50.145Z,16.20
2019-06-20T03:40:17.866Z,16.20
2019-06-20T03:42:46.701Z,16.20
2019-06-20T03:45:16.273Z,16.20
2019-06-20T03:47:45.102Z,16.20
2019-06-20T03:50:14.401Z,16.20
2019-06-20T03:52:43.371Z,16.20
2019-06-20T03:55:12.558Z,16.30
2019-06-20T03:57:41.358Z,16.30
2019-06-20T04:00:10.358Z,16.30
2019-06-20T04:02:39.242Z,16.40
2019-06-20T04:05:08.142Z,16.50
2019-06-20T04:07:37.049Z,16.40
2019-06-20T04:10:06.234Z,16.50
2019-06-20T04:12:35.124Z,16.50
2019-06-20T04:15:17.755Z,16.60
2019-06-20T04:17:34.874Z,16.60
2019-06-20T04:20:04.250Z,16.70
2019-06-20T04:22:33.083Z,16.80
2019-06-20T04:25:01.919Z,16.80
2019-06-20T04:27:32.073Z,16.90
2019-06-20T04:30:00.898Z,16.90
2019-06-20T04:32:29.739Z,16.90
2019-06-20T04:34:58.743Z,17.00
2019-06-20T04:37:27.595Z,17.00
2019-06-20T04:39:56.508Z,17.00
2019-06-20T04:42:25.435Z,17.00
2019-06-20T04:44:55.974Z,17.00
2019-06-20T04:47:24.875Z,17.00
2019-06-20T04:49:53.730Z,17.00
2019-06-20T04:52:22.664Z,17.10
2019-06-20T04:54:51.648Z,17.10
2019-06-20T04:57:20.533Z,17.20
2019-06-20T04:59:52.262Z,17.20
2019-06-20T05:02:34.138Z,17.20
2019-06-20T05:05:04.421Z,17.20
2019-06-20T05:07:33.350Z,17.20
2019-06-20T05:10:02.584Z,17.20
2019-06-20T05:12:31.672Z,17.20
2019-06-20T05:15:00.578Z,17.20
2019-06-20T05:17:29.411Z,17.20
2019-06-20T05:19:58.355Z,17.20
2019-06-20T05:22:27.309Z,17.20
2019-06-20T05:24:56.279Z,17.20
2019-06-20T05:27:25.199Z,17.30
2019-06-20T05:29:54.243Z,17.30
2019-06-20T05:32:23.108Z,17.30
2019-06-20T05:34:52.017Z,17.30
2019-06-20T05:37:20.998Z,17.30
2019-06-20T05:39:49.904Z,17.40
2019-06-20T05:42:18.769Z,17.30
2019-06-20T05:44:47.682Z,17.40
2019-06-20T05:47:16.505Z,17.40
2019-06-20T05:49:45.409Z,17.40
2019-06-20T05:52:14.311Z,17.40
2019-06-20T05:54:43.119Z,17.50
2019-06-20T05:57:11.960Z,17.50
2019-06-20T05:59:40.785Z,17.50
2019-06-20T06:02:09.742Z,17.50
2019-06-20T06:04:38.657Z,17.50
2019-06-20T06:07:07.640Z,17.40
2019-06-20T06:09:36.518Z,17.50
2019-06-20T06:12:05.652Z,17.40
2019-06-20T06:14:34.524Z,17.50
2019-06-20T06:17:03.630Z,17.50
2019-06-20T06:19:32.580Z,17.50
2019-06-20T06:22:01.491Z,17.50
2019-06-20T06:24:30.466Z,17.50
2019-06-20T06:27:00.066Z,17.50
2019-06-20T06:29:29.298Z,17.60
2019-06-20T06:31:58.227Z,17.60
2019-06-20T06:34:27.244Z,17.70
2019-06-20T06:36:56.160Z,17.80
2019-06-20T06:39:24.966Z,17.90
2019-06-20T06:41:53.815Z,18.00
2019-06-20T06:44:22.792Z,18.10
2019-06-20T06:46:57.595Z,18.10
2019-06-20T06:49:23.489Z,18.10
2019-06-20T06:51:52.406Z,18.10
2019-06-20T06:54:21.323Z,18.20
2019-06-20T06:56:50.173Z,18.20
2019-06-20T06:59:19.050Z,18.30
2019-06-20T07:01:47.908Z,18.30
2019-06-20T07:04:16.855Z,18.30
2019-06-20T07:06:45.888Z,18.30
2019-06-20T07:09:14.707Z,18.30
2019-06-20T07:11:43.552Z,18.40
2019-06-20T07:14:12.458Z,18.50
2019-06-20T07:16:41.448Z,18.40
2019-06-20T07:19:10.274Z,18.40
2019-06-20T07:21:39.257Z,18.50
2019-06-20T07:24:08.209Z,18.60
2019-06-20T07:26:37.110Z,18.50
2019-06-20T07:29:06.086Z,18.60
2019-06-20T07:31:34.987Z,18.70
2019-06-20T07:34:03.893Z,18.80
2019-06-20T07:36:32.805Z,18.90
2019-06-20T07:39:01.703Z,19.00
2019-06-20T07:41:30.769Z,18.90
2019-06-20T07:43:59.608Z,18.90
2019-06-20T07:46:28.529Z,18.90
2019-06-20T07:48:57.376Z,18.90
2019-06-20T07:51:26.276Z,19.10
2019-06-20T07:53:55.093Z,19.40
2019-06-20T07:56:23.913Z,19.70
2019-06-20T07:58:52.900Z,20.10
2019-06-20T08:01:21.797Z,20.40
2019-06-20T08:03:50.779Z,20.80
2019-06-20T08:06:19.791Z,21.00
2019-06-20T08:08:48.788Z,20.80
2019-06-20T08:11:17.812Z,20.60
2019-06-20T08:13:46.827Z,20.30
2019-06-20T08:16:15.797Z,20.20
2019-06-20T08:18:44.735Z,20.50
2019-06-20T08:21:13.861Z,20.90
2019-06-20T08:23:42.758Z,21.00
2019-06-20T08:26:11.741Z,20.70
2019-06-20T08:28:40.665Z,20.70
2019-06-20T08:31:09.714Z,20.80
2019-06-20T08:33:38.543Z,21.20
2019-06-20T08:36:07.575Z,21.60
2019-06-20T08:38:36.578Z,21.80
2019-06-20T08:41:06.543Z,21.80
2019-06-20T08:43:35.681Z,21.80
2019-06-20T08:46:09.960Z,21.50
2019-06-20T08:48:35.539Z,20.90
2019-06-20T08:51:04.635Z,20.90
2019-06-20T08:53:33.728Z,20.90
2019-06-20T08:56:03.256Z,20.70
2019-06-20T08:58:32.409Z,20.60
2019-06-20T09:03:32.109Z,20.90
2019-06-20T09:08:30.169Z,21.70
2019-06-20T09:10:59.542Z,22.00
2019-06-20T09:13:28.617Z,22.20
2019-06-20T09:15:58.718Z,22.00
2019-06-20T09:18:27.846Z,21.80
2019-06-20T09:20:58.061Z,21.90
2019-06-20T09:23:27.224Z,22.20
2019-06-20T09:25:57.470Z,22.40
2019-06-20T09:28:26.847Z,22.60
2019-06-20T09:30:57.008Z,22.90
2019-06-20T09:33:26.022Z,23.00
2019-06-20T09:35:57.388Z,23.10
2019-06-20T09:38:26.438Z,23.00
2019-06-20T09:40:55.342Z,23.10
2019-06-20T09:43:27.879Z,23.30
2019-06-20T09:45:56.103Z,22.90
2019-06-20T09:48:25.015Z,23.20
2019-06-20T09:50:54.537Z,23.20
2019-06-20T09:53:23.632Z,23.00
2019-06-20T09:55:53.730Z,23.10
2019-06-20T09:58:22.590Z,22.90
2019-06-20T10:00:52.781Z,23.00
2019-06-20T10:03:21.733Z,23.00
2019-06-20T10:05:50.800Z,23.20
2019-06-20T10:08:19.679Z,23.30
2019-06-20T10:10:49.344Z,22.90
2019-06-20T10:13:19.326Z,22.60
2019-06-20T10:15:49.388Z,22.30
2019-06-20T10:18:18.391Z,21.90
2019-06-20T10:20:47.324Z,21.80
2019-06-20T10:23:16.236Z,21.60
2019-06-20T10:25:46.265Z,21.60
2019-06-20T10:28:15.816Z,21.60
2019-06-20T10:30:44.842Z,21.50
2019-06-20T10:33:13.703Z,21.40
2019-06-20T10:35:45.141Z,21.80
2019-06-20T10:38:13.197Z,22.10
2019-06-20T10:40:44.729Z,22.70
2019-06-20T10:43:12.764Z,23.20
2019-06-20T10:45:44.131Z,23.70
2019-06-20T10:48:13.691Z,24.20
2019-06-20T10:50:43.901Z,24.30
2019-06-20T10:53:12.998Z,24.40
2019-06-20T10:55:43.256Z,24.10
2019-06-20T10:58:12.240Z,24.10
2019-06-20T11:00:41.726Z,23.70
2019-06-20T11:03:11.618Z,23.20
2019-06-20T11:05:40.911Z,22.80
2019-06-20T11:08:11.127Z,22.80
2019-06-20T11:10:41.780Z,23.10
2019-06-20T11:13:10.710Z,23.20
2019-06-20T11:15:40.656Z,23.20
2019-06-20T11:18:10.519Z,23.00
2019-06-20T11:20:40.949Z,23.00
2019-06-20T11:23:10.251Z,22.90
2019-06-20T11:25:40.257Z,22.80
2019-06-20T11:28:09.765Z,23.30
2019-06-20T11:30:52.639Z,23.90
2019-06-20T11:33:09.571Z,24.40
2019-06-20T11:35:39.300Z,24.60
2019-06-20T11:38:08.286Z,24.90
2019-06-20T11:40:38.297Z,25.00
2019-06-20T11:43:07.807Z,25.00
2019-06-20T11:45:37.352Z,24.60
2019-06-20T11:48:07.553Z,24.20
2019-06-20T11:50:37.898Z,24.20
2019-06-20T11:53:07.470Z,24.10
2019-06-20T11:55:36.455Z,24.00
2019-06-20T11:58:05.431Z,24.20
2019-06-20T12:00:34.394Z,24.20
2019-06-20T12:03:03.223Z,24.00
2019-06-20T12:05:32.112Z,24.30
2019-06-20T12:08:00.943Z,24.80
2019-06-20T12:10:29.742Z,25.10
2019-06-20T12:12:58.594Z,25.00
2019-06-20T12:15:27.672Z,25.00
2019-06-20T12:17:56.588Z,25.10
2019-06-20T12:20:25.664Z,25.30
2019-06-20T12:22:54.589Z,25.50
2019-06-20T12:25:24.890Z,25.00
2019-06-20T12:27:53.852Z,25.10
2019-06-20T12:30:23.651Z,25.30
2019-06-20T12:32:52.676Z,25.50
2019-06-20T12:35:21.789Z,25.50
2019-06-20T12:37:52.163Z,25.60
2019-06-20T12:40:22.140Z,25.20
2019-06-20T12:42:51.195Z,25.00
2019-06-20T12:45:21.727Z,25.10
2019-06-20T12:47:50.701Z,25.00
2019-06-20T12:50:20.996Z,25.20
2019-06-20T12:52:50.010Z,25.30
2019-06-20T12:55:19.174Z,25.10
2019-06-20T12:57:48.510Z,25.10
2019-06-20T13:00:18.816Z,24.90
2019-06-20T13:02:49.590Z,25.00
2019-06-20T13:05:20.647Z,24.90
2019-06-20T13:07:50.314Z,25.00
2019-06-20T13:10:19.801Z,24.90
2019-06-20T13:12:48.892Z,25.10
2019-06-20T13:15:18.710Z,24.80
2019-06-20T13:17:48.884Z,24.80
2019-06-20T13:20:18.710Z,24.70
2019-06-20T13:22:49.384Z,24.80
2019-06-20T13:25:18.731Z,24.80
2019-06-20T13:27:47.967Z,24.50
2019-06-20T13:30:17.448Z,24.30
2019-06-20T13:32:47.207Z,24.00
2019-06-20T13:35:16.795Z,23.90
2019-06-20T13:37:47.641Z,23.80
2019-06-20T13:40:18.218Z,23.80
2019-06-20T13:42:48.041Z,23.80
2019-06-20T13:45:22.387Z,23.70
2019-06-20T13:47:51.835Z,23.80
2019-06-20T13:50:22.325Z,23.80
2019-06-20T13:52:51.609Z,23.80
2019-06-20T13:55:20.809Z,24.10
2019-06-20T13:57:49.804Z,24.50
2019-06-20T14:00:19.839Z,24.70
2019-06-20T14:02:49.091Z,25.00
2019-06-20T14:05:19.687Z,24.80
2019-06-20T14:07:51.927Z,24.80
2019-06-20T14:10:20.199Z,24.50
2019-06-20T14:12:49.535Z,24.60
2019-06-20T14:15:18.963Z,24.80
2019-06-20T14:17:49.474Z,25.00
2019-06-20T14:20:19.474Z,24.90
2019-06-20T14:22:49.503Z,24.90
2019-06-20T14:25:19.263Z,25.10
2019-06-20T14:27:49.057Z,25.40
2019-06-20T14:30:18.756Z,25.60
2019-06-20T14:32:49.233Z,25.80
2019-06-20T14:35:19.173Z,25.80
2019-06-20T14:37:49.567Z,25.60
2019-06-20T14:40:19.300Z,25.30
2019-06-20T14:42:50.430Z,25.30
2019-06-20T14:45:20.606Z,24.80
2019-06-20T14:47:52.224Z,24.40
2019-06-20T14:50:20.704Z,24.40
2019-06-20T14:52:50.133Z,24.30
2019-06-20T14:55:20.764Z,24.40
2019-06-20T14:57:50.490Z,24.70
2019-06-20T15:00:20.427Z,24.80
2019-06-20T15:02:53.106Z,24.90
2019-06-20T15:05:20.606Z,24.80
2019-06-20T15:07:51.519Z,24.70
2019-06-20T15:10:20.263Z,24.60
2019-06-20T15:12:50.255Z,24.40
2019-06-20T15:15:21.079Z,24.10
2019-06-20T15:17:53.277Z,24.10
2019-06-20T15:20:20.703Z,24.40
2019-06-20T15:22:50.951Z,24.60
2019-06-20T15:25:20.419Z,24.80
2019-06-20T15:27:51.370Z,24.90
2019-06-20T15:30:20.840Z,25.00
2019-06-20T15:33:04.270Z,25.10
2019-06-20T15:35:20.515Z,25.10
2019-06-20T15:37:50.172Z,25.00
2019-06-20T15:40:20.033Z,24.90
2019-06-20T15:42:49.623Z,24.90
2019-06-20T15:45:19.844Z,24.60
2019-06-20T15:47:48.828Z,24.40
2019-06-20T15:50:18.376Z,24.30
2019-06-20T15:52:47.338Z,24.50
2019-06-20T15:55:19.687Z,24.40
2019-06-20T15:57:48.681Z,24.40
2019-06-20T16:00:18.182Z,24.60
2019-06-20T16:02:47.310Z,24.70
2019-06-20T16:05:16.486Z,24.70
2019-06-20T16:07:45.364Z,24.80
2019-06-20T16:10:14.710Z,24.80
2019-06-20T16:12:43.704Z,25.00
2019-06-20T16:15:14.347Z,25.10
2019-06-20T16:17:43.235Z,24.80
2019-06-20T16:20:12.287Z,24.80
2019-06-20T16:22:41.118Z,24.80
2019-06-20T16:25:10.445Z,24.80
2019-06-20T16:27:39.278Z,24.80
2019-06-20T16:30:09.092Z,24.80
2019-06-20T16:32:38.174Z,24.70
2019-06-20T16:35:08.220Z,24.60
2019-06-20T16:37:37.378Z,24.40
2019-06-20T16:40:07.013Z,24.20
2019-06-20T16:42:36.027Z,24.00
2019-06-20T16:45:05.522Z,23.90
2019-06-20T16:47:34.621Z,23.70
2019-06-20T16:50:03.988Z,23.70
2019-06-20T16:52:33.003Z,23.80
2019-06-20T16:55:02.182Z,23.90
2019-06-20T16:57:32.386Z,23.90
2019-06-20T17:00:01.700Z,24.00
2019-06-20T17:02:31.035Z,24.00
2019-06-20T17:05:00.198Z,24.00
2019-06-20T17:07:29.340Z,24.00
2019-06-20T17:09:58.900Z,24.00
2019-06-20T17:12:29.629Z,23.90
2019-06-20T17:14:58.674Z,23.60
2019-06-20T17:17:27.991Z,23.40
2019-06-20T17:19:58.018Z,23.20
2019-06-20T17:22:27.562Z,23.10
2019-06-20T17:24:57.861Z,23.00
2019-06-20T17:27:27.281Z,22.90
2019-06-20T17:29:56.516Z,22.80
2019-06-20T17:32:25.528Z,22.80
2019-06-20T17:34:54.520Z,22.80
2019-06-20T17:37:23.589Z,22.70
2019-06-20T17:39:52.647Z,22.70
2019-06-20T17:42:22.187Z,22.70
2019-06-20T17:44:51.360Z,22.60
2019-06-20T17:47:20.662Z,22.60
2019-06-20T17:49:49.859Z,22.50
2019-06-20T17:52:18.856Z,22.40
2019-06-20T17:54:47.982Z,22.30
2019-06-20T17:57:17.073Z,22.20
2019-06-20T17:59:46.027Z,22.20
2019-06-20T18:02:14.951Z,22.10
2019-06-20T18:04:43.988Z,22.10
2019-06-20T18:07:13.045Z,22.10
2019-06-20T18:09:42.080Z,22.10
2019-06-20T18:12:11.064Z,21.90
2019-06-20T18:14:40.087Z,21.90
2019-06-20T18:17:08.969Z,21.80
2019-06-20T18:19:38.020Z,21.70
2019-06-20T18:22:07.008Z,21.60
2019-06-20T18:24:36.003Z,21.50
2019-06-20T18:27:05.184Z,21.40
2019-06-20T18:29:35.028Z,21.40
2019-06-20T18:32:04.716Z,21.30
2019-06-20T18:34:34.705Z,21.20
2019-06-20T18:37:04.158Z,21.20
2019-06-20T18:39:34.249Z,21.10
2019-06-20T18:42:03.817Z,21.20
2019-06-20T18:44:33.032Z,21.20
2019-06-20T18:47:02.464Z,21.20
2019-06-20T18:49:31.889Z,21.10
2019-06-20T18:52:00.872Z,21.10
2019-06-20T18:54:30.593Z,21.10
2019-06-20T18:57:00.588Z,21.00
2019-06-20T18:59:32.731Z,21.00
2019-06-20T19:02:08.461Z,21.00
2019-06-20T19:04:46.690Z,20.90
2019-06-20T19:07:11.083Z,20.80
2019-06-20T19:09:40.866Z,20.70
2019-06-20T19:12:11.054Z,20.70
2019-06-20T19:14:50.025Z,20.60
2019-06-20T19:17:37.767Z,20.60
2019-06-20T19:20:08.394Z,20.60
2019-06-20T19:22:38.419Z,20.60
2019-06-20T19:25:08.372Z,20.60
2019-06-20T19:27:46.095Z,20.50
2019-06-20T19:30:09.603Z,20.40
2019-06-20T19:32:40.110Z,20.40
2019-06-20T19:35:10.589Z,20.40
2019-06-20T19:37:40.270Z,20.30
2019-06-20T19:40:10.603Z,20.30
2019-06-20T19:42:40.159Z,20.20
2019-06-20T19:45:10.127Z,20.20
2019-06-20T19:47:39.447Z,20.20
2019-06-20T19:50:09.158Z,20.10
2019-06-20T19:52:38.601Z,20.10
2019-06-20T19:55:07.784Z,20.00
2019-06-20T19:57:37.161Z,20.00
2019-06-20T20:00:08.179Z,19.90
2019-06-20T20:02:37.379Z,19.90
2019-06-20T20:05:18.461Z,19.90
2019-06-20T20:07:37.844Z,19.90
2019-06-20T20:10:07.483Z,19.80
2019-06-20T20:12:36.555Z,19.80
2019-06-20T20:15:05.910Z,19.80
2019-06-20T20:17:34.880Z,19.80
2019-06-20T20:20:04.223Z,19.70
2019-06-20T20:22:36.331Z,19.60
2019-06-20T20:25:05.753Z,19.50
2019-06-20T20:27:34.733Z,19.40
2019-06-20T20:30:04.088Z,19.40
2019-06-20T20:32:33.118Z,19.20
2019-06-20T20:35:02.149Z,19.10
2019-06-20T20:37:31.231Z,19.10
2019-06-20T20:40:00.328Z,18.90
2019-06-20T20:42:29.407Z,18.80
2019-06-20T20:44:58.417Z,18.70
2019-06-20T20:47:28.449Z,18.60
2019-06-20T20:49:57.641Z,18.50
2019-06-20T20:52:26.742Z,18.30
2019-06-20T20:54:55.787Z,18.20
2019-06-20T20:57:24.875Z,18.10
2019-06-20T20:59:53.877Z,18.00
2019-06-20T21:02:22.974Z,18.00
2019-06-20T21:04:51.958Z,17.90
2019-06-20T21:07:21.986Z,17.90
2019-06-20T21:09:50.967Z,17.80
2019-06-20T21:12:21.087Z,17.80
2019-06-20T21:14:50.259Z,17.80
2019-06-20T21:17:19.288Z,17.70
2019-06-20T21:19:48.437Z,17.70
2019-06-20T21:22:17.447Z,17.70
2019-06-20T21:24:46.453Z,17.60
2019-06-20T21:27:18.508Z,17.60
2019-06-20T21:29:47.506Z,17.60
2019-06-20T21:32:17.600Z,17.50
2019-06-20T21:34:46.625Z,17.50
2019-06-20T21:37:15.458Z,17.50
2019-06-20T21:39:44.336Z,17.40
2019-06-20T21:42:13.335Z,17.40
2019-06-20T21:44:42.134Z,17.40
2019-06-20T21:47:10.967Z,17.30
2019-06-20T21:49:39.789Z,17.30
2019-06-20T21:52:08.835Z,17.30
2019-06-20T21:54:37.786Z,17.30
2019-06-20T21:57:06.629Z,17.30
2019-06-20T21:59:35.518Z,17.30
2019-06-20T22:02:05.110Z,17.30
2019-06-20T22:04:34.072Z,17.30
2019-06-20T22:07:02.995Z,17.30
2019-06-20T22:09:31.938Z,17.20
2019-06-20T22:12:00.773Z,17.30
2019-06-20T22:14:32.465Z,17.30
2019-06-20T22:17:00.492Z,17.30
2019-06-20T22:19:29.367Z,17.20
2019-06-20T22:21:58.289Z,17.10
2019-06-20T22:24:27.194Z,17.10
2019-06-20T22:26:56.020Z,17.10
2019-06-20T22:29:24.845Z,17.10
2019-06-20T22:31:53.726Z,17.00
2019-06-20T22:34:22.632Z,17.00
2019-06-20T22:36:51.443Z,16.90
2019-06-20T22:39:20.278Z,16.90
2019-06-20T22:41:49.165Z,16.90
2019-06-20T22:44:18.072Z,16.90
2019-06-20T22:46:46.964Z,16.90
2019-06-20T22:49:15.931Z,16.80
2019-06-20T22:51:44.752Z,16.80
2019-06-20T22:54:13.592Z,16.80
2019-06-20T22:56:42.406Z,16.80
2019-06-20T22:59:11.311Z,16.80
2019-06-20T23:01:40.187Z,16.70
2019-06-20T23:04:09.010Z,16.70
2019-06-20T23:06:37.957Z,16.60
2019-06-20T23:09:08.027Z,16.60
2019-06-20T23:11:36.839Z,16.60
2019-06-20T23:14:05.832Z,16.60
2019-06-20T23:16:34.691Z,16.50
2019-06-20T23:19:03.737Z,16.40
2019-06-20T23:21:32.735Z,16.30
2019-06-20T23:24:01.629Z,16.30
2019-06-20T23:26:30.724Z,16.20
2019-06-20T23:29:17.279Z,16.20
2019-06-20T23:31:46.104Z,16.20
2019-06-20T23:34:14.919Z,16.20
2019-06-20T23:36:43.755Z,16.10
2019-06-20T23:39:12.637Z,16.10
2019-06-20T23:41:41.608Z,16.10
2019-06-20T23:44:10.426Z,16.10
2019-06-20T23:46:39.322Z,16.10
2019-06-20T23:49:08.295Z,16.10
2019-06-20T23:51:40.402Z,16.10
2019-06-20T23:54:09.208Z,16.10
2019-06-20T23:56:38.112Z,16.00
2019-06-20T23:59:07.163Z,16.00
